Time;durP1;ratioP1;P1;durP2;ratioP2;P2;SDS_P1;SDS_P2;PMS_P1;PMS_P2;Temp;Humidity;BMP_temperature;BMP_pressure;BME280_temperature;BME280_humidity;BME280_pressure;Samples;Min_cycle;Max_cycle;Signal;HPM_P1;HPM_P2
2022/01/21 00:00:28;;;;;;;;;;;;;;;1.15;62.18;95125.72;5073387;28;969;-49
2022/01/21 00:02:54;;;;;;;;;;;;;;;1.28;61.94;95125.75;5073223;28;1072;-48
2022/01/21 00:05:23;;;;;;;;;;;;;;;1.25;62.43;95110.13;5073299;28;1052;-49
2022/01/21 00:07:49;;;;;;;;;;;;;;;1.24;62.08;95109.31;5072975;28;1072;-49
2022/01/21 00:10:15;;;;;;;;;;;;;;;1.33;61.96;95099.94;5073152;28;970;-49
2022/01/21 00:12:42;;;;;;;;;;;;;;;1.26;61.60;95104.75;5073092;28;1030;-49
2022/01/21 00:15:10;;;;;;;;;;;;;;;1.35;61.22;95111.19;5072890;28;1910;-49
2022/01/21 00:17:36;;;;;;;;;;;;;;;1.47;60.79;95110.34;5072840;28;1184;-49
2022/01/21 00:31:02;;;;;;;;;;;;;;;1.47;61.29;95115.59;5077372;28;978;-49
2022/01/21 00:33:28;;;;;;;;;;;;;;;1.56;60.99;95109.69;5076605;28;2006;-49
2022/01/21 00:35:54;;;;;;;;;;;;;;;1.40;61.26;95116.97;5076953;28;1915;-49
2022/01/21 00:38:22;;;;;;;;;;;;;;;1.29;61.48;95123.00;5076851;28;1047;-49
2022/01/21 00:40:48;;;;;;;;;;;;;;;1.35;61.18;95127.84;5076831;28;1036;-49
2022/01/21 00:43:31;;;;;;;;;;;;;;;1.32;61.26;95125.41;5076653;28;1032;-49
2022/01/21 00:45:58;;;;;;;;;;;;;;;1.39;61.21;95132.91;5076798;28;1044;-49
2022/01/21 00:48:24;;;;;;;;;;;;;;;1.55;60.36;95128.25;5076580;28;1055;-49
2022/01/21 00:50:50;;;;;;;;;;;;;;;1.67;60.14;95129.19;5076576;28;1063;-49
2022/01/21 00:53:16;;;;;;;;;;;;;;;1.44;61.50;95121.09;5075973;28;1089;-49
2022/01/21 00:55:42;;;;;;;;;;;;;;;1.45;61.22;95125.41;5075297;28;2001;-49
2022/01/21 00:58:08;;;;;;;;;;;;;;;1.43;60.93;95126.47;5076207;28;1045;-49
2022/01/21 01:00:34;;;;;;;;;;;;;;;1.27;62.55;95124.91;5076335;28;1104;-49
2022/01/21 01:03:00;;;;;;;;;;;;;;;1.29;62.25;95133.53;5076409;28;1056;-49
2022/01/21 01:05:26;;;;;;;;;;;;;;;1.43;61.64;95123.84;5076250;28;1036;-49
2022/01/21 01:07:53;;;;;;;;;;;;;;;1.50;61.63;95120.66;5075938;28;1886;-49
2022/01/21 01:10:35;;;;;;;;;;;;;;;1.57;61.56;95118.44;5076296;28;1016;-49
2022/01/21 01:19:55;;;;;;;;;;;;;;;1.62;60.90;95112.88;5076359;28;986;-49
2022/01/21 01:21:16;;;;;;;;;;;;;;;1.65;61.27;95118.75;5076236;28;970;-49
2022/01/21 01:29:31;;;;;;;;;;;;;;;1.51;61.44;95092.53;5033281;28;1204;-49
2022/01/21 01:31:57;;;;;;;;;;;;;;;1.55;61.74;95083.44;5058870;28;1133;-49
2022/01/21 01:34:23;;;;;;;;;;;;;;;1.59;61.47;95073.53;5075532;28;1044;-49
2022/01/21 01:36:49;;;;;;;;;;;;;;;1.71;60.92;95076.16;5075485;28;1902;-49
2022/01/21 01:39:28;;;;;;;;;;;;;;;1.69;61.48;95071.91;5075283;28;1053;-49
2022/01/21 01:50:05;;;;;;;;;;;;;;;1.74;60.15;95064.53;5075530;28;1005;-48
2022/01/21 01:52:32;;;;;;;;;;;;;;;1.77;60.63;95061.69;5075286;28;1251;-48
2022/01/21 01:54:58;;;;;;;;;;;;;;;1.74;60.93;95057.47;5075016;28;1906;-49
2022/01/21 01:57:24;;;;;;;;;;;;;;;1.79;60.64;95058.94;5075323;28;1056;-49
2022/01/21 01:59:50;;;;;;;;;;;;;;;1.86;60.43;95054.91;5075037;28;1065;-49
2022/01/21 02:02:17;;;;;;;;;;;;;;;1.84;60.63;95056.81;5075640;28;1052;-49
2022/01/21 02:04:45;;;;;;;;;;;;;;;1.93;61.26;95059.63;5075238;28;981;-49
2022/01/21 02:07:12;;;;;;;;;;;;;;;1.89;60.97;95060.78;5075007;28;1104;-49
2022/01/21 02:09:38;;;;;;;;;;;;;;;1.81;62.19;95060.50;5075154;28;1049;-49
2022/01/21 02:12:04;;;;;;;;;;;;;;;1.77;62.34;95059.06;5075055;28;988;-49
2022/01/21 02:14:35;;;;;;;;;;;;;;;1.85;61.55;95066.41;5074984;28;2001;-48
2022/01/21 02:22:17;;;;;;;;;;;;;;;1.68;62.59;95063.19;5074843;28;1012;-49
2022/01/21 02:25:15;;;;;;;;;;;;;;;1.55;64.40;95059.72;5074751;28;1060;-49
2022/01/21 02:27:32;;;;;;;;;;;;;;;1.55;64.19;95060.56;5074356;28;1776;-49
2022/01/21 02:30:04;;;;;;;;;;;;;;;1.62;64.54;95065.44;5074723;28;1064;-49
2022/01/21 02:32:31;;;;;;;;;;;;;;;1.54;64.71;95053.63;5074768;28;1031;-49
2022/01/21 02:34:57;;;;;;;;;;;;;;;1.56;64.63;95054.34;5074629;28;1987;-49
2022/01/21 02:37:23;;;;;;;;;;;;;;;1.53;65.40;95051.94;5074327;28;1201;-49
2022/01/21 02:39:49;;;;;;;;;;;;;;;1.49;66.30;95061.00;5074159;28;985;-49
2022/01/21 02:42:15;;;;;;;;;;;;;;;1.59;66.19;95055.91;5074586;28;970;-49
2022/01/21 02:44:42;;;;;;;;;;;;;;;1.61;65.01;95054.00;5073883;28;1291;-50
2022/01/21 02:47:09;;;;;;;;;;;;;;;1.50;67.10;95046.03;5074509;28;1036;-49
2022/01/21 02:49:35;;;;;;;;;;;;;;;1.43;66.75;95057.97;5074104;28;1097;-49
2022/01/21 02:52:03;;;;;;;;;;;;;;;1.39;66.82;95048.59;5074126;28;1231;-49
2022/01/21 02:54:34;;;;;;;;;;;;;;;1.44;65.60;95041.19;5073855;28;1046;-49
2022/01/21 02:57:00;;;;;;;;;;;;;;;1.52;66.15;95038.88;5074404;28;1044;-49
2022/01/21 02:59:27;;;;;;;;;;;;;;;1.56;66.82;95033.28;5073762;28;1033;-49
2022/01/21 03:01:53;;;;;;;;;;;;;;;1.56;67.59;95030.63;5073871;28;1113;-49
2022/01/21 03:04:41;;;;;;;;;;;;;;;1.50;68.65;95030.22;5074215;28;950;-49
2022/01/21 03:07:08;;;;;;;;;;;;;;;1.55;68.86;95030.75;5074030;28;1021;-49
2022/01/21 03:09:34;;;;;;;;;;;;;;;1.46;69.90;95020.84;5073751;28;1042;-49
2022/01/21 03:11:59;;;;;;;;;;;;;;;1.28;70.94;95015.94;5073931;28;1036;-48
2022/01/21 03:14:25;;;;;;;;;;;;;;;1.31;71.23;95020.13;5073849;28;1040;-49
2022/01/21 03:16:52;;;;;;;;;;;;;;;1.24;72.87;95013.66;5073481;28;1977;-49
2022/01/21 03:19:18;;;;;;;;;;;;;;;1.07;74.11;95014.81;5073925;28;1001;-49
2022/01/21 03:21:44;;;;;;;;;;;;;;;1.17;72.98;95013.22;5073445;28;1061;-49
2022/01/21 03:24:10;;;;;;;;;;;;;;;1.24;73.65;95021.53;5073788;28;1005;-49
2022/01/21 03:26:36;;;;;;;;;;;;;;;1.16;74.38;95016.81;5073434;28;1125;-49
2022/01/21 03:29:03;;;;;;;;;;;;;;;1.23;74.51;95015.41;5073486;28;998;-48
2022/01/21 03:31:30;;;;;;;;;;;;;;;1.24;74.73;95006.56;5073281;28;1070;-49
2022/01/21 03:33:59;;;;;;;;;;;;;;;1.20;75.98;95002.47;5073816;28;1032;-49
2022/01/21 03:36:25;;;;;;;;;;;;;;;1.09;76.40;95005.84;5073303;28;1902;-49
2022/01/21 03:38:52;;;;;;;;;;;;;;;1.09;77.17;95010.28;5073598;28;997;-49
2022/01/21 03:41:18;;;;;;;;;;;;;;;1.07;77.68;95022.72;5073388;28;1012;-49
2022/01/21 03:43:44;;;;;;;;;;;;;;;1.11;77.09;95022.38;5073966;28;1052;-49
2022/01/21 03:46:10;;;;;;;;;;;;;;;1.08;77.45;95025.25;5073211;28;1036;-48
2022/01/21 03:48:36;;;;;;;;;;;;;;;1.11;77.39;95034.72;5073336;28;1069;-49
2022/01/21 03:51:02;;;;;;;;;;;;;;;1.12;78.00;95034.63;5073091;28;1069;-49
2022/01/21 03:53:28;;;;;;;;;;;;;;;1.09;78.65;95041.88;5071807;28;1093;-49
2022/01/21 03:55:54;;;;;;;;;;;;;;;0.98;79.39;95053.16;5072343;28;1906;-48
2022/01/21 03:58:20;;;;;;;;;;;;;;;1.00;79.68;95053.88;5071934;28;957;-49
2022/01/21 04:00:53;;;;;;;;;;;;;;;1.04;79.35;95062.41;5073380;28;1041;-49
2022/01/21 04:03:20;;;;;;;;;;;;;;;0.98;79.72;95061.88;5073374;28;1078;-49
2022/01/21 04:05:46;;;;;;;;;;;;;;;0.96;80.51;95061.16;5073042;28;1889;-49
2022/01/21 04:08:12;;;;;;;;;;;;;;;0.99;79.94;95060.13;5073198;28;1060;-49
2022/01/21 04:10:41;;;;;;;;;;;;;;;1.07;80.04;95059.59;5073195;28;1057;-49
2022/01/21 04:13:15;;;;;;;;;;;;;;;1.17;79.71;95061.47;5073002;28;973;-49
2022/01/21 04:15:42;;;;;;;;;;;;;;;1.22;79.86;95074.31;5073312;28;1909;-49
2022/01/21 04:18:09;;;;;;;;;;;;;;;1.24;80.11;95061.88;5073024;28;1056;-49
2022/01/21 04:20:34;;;;;;;;;;;;;;;1.21;80.74;95069.16;5073294;28;1077;-49
2022/01/21 04:23:00;;;;;;;;;;;;;;;1.15;80.85;95068.63;5072979;28;1048;-48
2022/01/21 04:25:27;;;;;;;;;;;;;;;1.05;81.54;95079.91;5071887;28;1049;-48
2022/01/21 04:27:53;;;;;;;;;;;;;;;1.02;82.10;95088.84;5072683;28;1063;-49
2022/01/21 04:30:19;;;;;;;;;;;;;;;1.03;82.70;95087.06;5073159;28;1057;-48
2022/01/21 04:32:45;;;;;;;;;;;;;;;0.97;83.13;95091.81;5072946;28;1044;-49
2022/01/21 04:35:11;;;;;;;;;;;;;;;0.95;83.40;95098.97;5072822;28;1913;-49
2022/01/21 04:37:43;;;;;;;;;;;;;;;1.04;82.93;95097.47;5072864;28;1077;-49
2022/01/21 04:40:14;;;;;;;;;;;;;;;1.11;82.75;95103.19;5072870;28;1031;-49
2022/01/21 04:48:10;;;;;;;;;;;;;;;1.16;82.50;95116.88;5072830;28;966;-49
2022/01/21 04:50:42;;;;;;;;;;;;;;;1.17;82.76;95121.19;5072787;28;1155;-48
2022/01/21 04:53:08;;;;;;;;;;;;;;;1.26;82.19;95123.19;5072156;28;1279;-49
2022/01/21 04:55:35;;;;;;;;;;;;;;;1.34;82.16;95125.31;5072581;28;1921;-49
2022/01/21 04:58:01;;;;;;;;;;;;;;;1.35;82.32;95127.84;5072783;28;1160;-49
2022/01/21 05:00:28;;;;;;;;;;;;;;;1.34;82.87;95130.56;5072832;28;997;-49
2022/01/21 05:02:54;;;;;;;;;;;;;;;1.35;83.14;95143.66;5072425;28;1033;-49
2022/01/21 05:05:20;;;;;;;;;;;;;;;1.46;82.87;95153.47;5072485;28;1124;-49
2022/01/21 05:07:46;;;;;;;;;;;;;;;1.57;83.52;95157.97;5074180;28;1061;-49
2022/01/21 05:10:12;;;;;;;;;;;;;;;1.59;85.13;95156.06;5076047;28;1034;-49
2022/01/21 05:12:38;;;;;;;;;;;;;;;1.54;85.84;95158.19;5074956;28;1056;-49
2022/01/21 05:15:15;;;;;;;;;;;;;;;1.56;86.62;95162.41;5076045;28;1910;-48
2022/01/21 05:17:45;;;;;;;;;;;;;;;1.67;85.49;95169.56;5075943;28;1100;-48
2022/01/21 05:20:11;;;;;;;;;;;;;;;1.65;86.39;95184.66;5076238;28;1059;-48
2022/01/21 05:22:38;;;;;;;;;;;;;;;1.76;84.89;95178.63;5075817;28;1036;-48
2022/01/21 05:25:04;;;;;;;;;;;;;;;1.83;84.36;95179.06;5074938;28;1048;-48
2022/01/21 05:27:30;;;;;;;;;;;;;;;1.81;85.03;95188.84;5075411;28;1058;-48
2022/01/21 05:29:56;;;;;;;;;;;;;;;1.86;83.46;95205.19;5075995;28;1048;-48
2022/01/21 05:32:22;;;;;;;;;;;;;;;1.89;84.00;95199.72;5075466;28;1022;-48
2022/01/21 05:34:48;;;;;;;;;;;;;;;1.93;83.26;95214.34;5075615;28;1995;-48
2022/01/21 05:37:14;;;;;;;;;;;;;;;1.91;83.58;95213.63;5075473;28;1216;-48
2022/01/21 05:39:40;;;;;;;;;;;;;;;1.91;83.58;95213.63;5075287;28;1174;-48
2022/01/21 05:42:07;;;;;;;;;;;;;;;1.92;84.10;95223.22;5075512;28;1054;-48
2022/01/21 05:47:00;;;;;;;;;;;;;;;1.80;84.94;95226.72;5075822;28;1056;-48
2022/01/21 05:49:28;;;;;;;;;;;;;;;1.76;85.27;95241.88;5075491;28;1028;-48
2022/01/21 05:52:03;;;;;;;;;;;;;;;1.81;84.88;95241.59;5075499;28;1105;-48
2022/01/21 05:54:29;;;;;;;;;;;;;;;1.86;84.16;95244.72;5075086;28;1029;-48
2022/01/21 05:56:55;;;;;;;;;;;;;;;1.86;84.22;95242.09;5075622;28;1981;-48
2022/01/21 05:59:21;;;;;;;;;;;;;;;1.94;83.84;95243.25;5074820;28;1000;-48
2022/01/21 06:01:47;;;;;;;;;;;;;;;1.95;83.32;95244.09;5075375;28;1024;-48
2022/01/21 06:04:14;;;;;;;;;;;;;;;1.94;83.49;95245.91;5075226;28;1009;-48
2022/01/21 06:06:40;;;;;;;;;;;;;;;1.92;83.76;95257.50;5075398;28;1004;-48
2022/01/21 06:09:06;;;;;;;;;;;;;;;1.81;84.43;95258.25;5075102;28;977;-48
2022/01/21 06:11:33;;;;;;;;;;;;;;;1.84;84.01;95252.78;5075316;28;1052;-48
2022/01/21 06:14:00;;;;;;;;;;;;;;;1.97;83.28;95249.28;5075162;28;966;-48
2022/01/21 06:16:26;;;;;;;;;;;;;;;1.89;83.46;95263.81;5074758;28;1906;-48
2022/01/21 06:18:53;;;;;;;;;;;;;;;1.86;83.45;95271.97;5074201;28;1040;-48
2022/01/21 06:21:19;;;;;;;;;;;;;;;1.87;83.87;95285.97;5075060;28;1013;-48
2022/01/21 06:23:46;;;;;;;;;;;;;;;1.81;84.27;95283.78;5073353;28;1049;-48
2022/01/21 06:26:12;;;;;;;;;;;;;;;1.77;83.93;95283.13;5075019;28;989;-48
2022/01/21 06:28:38;;;;;;;;;;;;;;;1.89;83.21;95286.72;5074310;28;1037;-48
2022/01/21 06:31:04;;;;;;;;;;;;;;;1.95;82.99;95291.56;5074973;28;1053;-48
2022/01/21 06:33:30;;;;;;;;;;;;;;;1.88;83.52;95292.97;5074368;28;1029;-48
2022/01/21 06:35:56;;;;;;;;;;;;;;;1.86;83.73;95308.88;5074356;28;1913;-47
2022/01/21 06:38:22;;;;;;;;;;;;;;;1.84;83.81;95321.31;5074434;28;1032;-48
2022/01/21 06:40:48;;;;;;;;;;;;;;;1.98;83.54;95325.66;5074767;28;1024;-48
2022/01/21 06:43:15;;;;;;;;;;;;;;;1.97;82.83;95326.59;5074376;28;1033;-47
2022/01/21 06:45:42;;;;;;;;;;;;;;;1.91;82.84;95334.91;5074653;28;961;-47
2022/01/21 06:48:08;;;;;;;;;;;;;;;1.84;83.29;95331.00;5074261;28;1036;-47
2022/01/21 06:50:36;;;;;;;;;;;;;;;1.88;83.01;95340.41;5074389;28;1020;-48
2022/01/21 06:53:02;;;;;;;;;;;;;;;1.81;83.27;95363.69;5074077;28;1101;-48
2022/01/21 06:55:28;;;;;;;;;;;;;;;1.76;82.15;95368.44;5073827;28;1996;-47
2022/01/21 06:57:54;;;;;;;;;;;;;;;1.70;80.78;95374.13;5074242;28;941;-48
2022/01/21 07:00:21;;;;;;;;;;;;;;;1.61;81.27;95378.19;5073929;28;1024;-47
2022/01/21 07:02:48;;;;;;;;;;;;;;;1.53;81.56;95383.97;5074144;28;969;-46
2022/01/21 07:05:14;;;;;;;;;;;;;;;1.48;81.72;95393.13;5073732;28;1047;-47
2022/01/21 07:07:40;;;;;;;;;;;;;;;1.44;81.58;95404.81;5074121;28;1036;-46
2022/01/21 07:10:07;;;;;;;;;;;;;;;1.37;82.18;95414.91;5073934;28;1059;-47
2022/01/21 07:12:33;;;;;;;;;;;;;;;1.49;81.54;95426.44;5074044;28;970;-48
2022/01/21 07:14:59;;;;;;;;;;;;;;;1.52;80.92;95434.16;5073837;28;1996;-48
2022/01/21 07:17:26;;;;;;;;;;;;;;;1.48;81.14;95427.38;5073958;28;1052;-48
2022/01/21 07:19:52;;;;;;;;;;;;;;;1.46;81.37;95439.81;5073776;28;1045;-48
2022/01/21 07:22:18;;;;;;;;;;;;;;;1.47;80.93;95446.78;5073481;28;1057;-48
2022/01/21 07:24:44;;;;;;;;;;;;;;;1.54;80.58;95438.38;5073767;28;1037;-48
2022/01/21 07:27:10;;;;;;;;;;;;;;;1.54;80.43;95445.44;5073298;28;1887;-48
2022/01/21 07:29:36;;;;;;;;;;;;;;;1.56;80.38;95447.03;5073398;28;1177;-48
2022/01/21 07:32:03;;;;;;;;;;;;;;;1.47;80.82;95459.97;5073490;28;1128;-48
2022/01/21 07:34:29;;;;;;;;;;;;;;;1.47;80.35;95465.22;5073218;28;1029;-48
2022/01/21 07:36:55;;;;;;;;;;;;;;;1.45;80.28;95475.03;5073148;28;1906;-48
2022/01/21 07:39:21;;;;;;;;;;;;;;;1.44;80.36;95468.91;5073553;28;1043;-50
2022/01/21 07:41:47;;;;;;;;;;;;;;;1.34;81.12;95471.25;5073625;28;993;-48
2022/01/21 07:44:15;;;;;;;;;;;;;;;1.37;80.89;95475.50;5073447;28;961;-48
2022/01/21 07:46:42;;;;;;;;;;;;;;;1.36;81.08;95479.06;5073635;28;1067;-48
2022/01/21 07:49:09;;;;;;;;;;;;;;;1.36;81.28;95477.28;5073076;28;1037;-48
2022/01/21 07:51:35;;;;;;;;;;;;;;;1.38;81.12;95494.78;5073309;28;1251;-49
2022/01/21 07:54:02;;;;;;;;;;;;;;;1.41;81.44;95492.81;5073177;28;1098;-48
2022/01/21 07:56:28;;;;;;;;;;;;;;;1.37;81.21;95496.59;5073412;28;1906;-48
2022/01/21 07:58:54;;;;;;;;;;;;;;;1.38;81.13;95495.63;5073038;28;1868;-48
2022/01/21 08:01:20;;;;;;;;;;;;;;;1.46;80.22;95514.47;5073328;28;1044;-48
2022/01/21 08:03:46;;;;;;;;;;;;;;;1.49;80.41;95510.78;5073450;28;1044;-48
2022/01/21 08:06:12;;;;;;;;;;;;;;;1.42;80.29;95494.50;5072853;28;1120;-48
2022/01/21 08:08:38;;;;;;;;;;;;;;;1.46;80.32;95503.06;5073189;28;1053;-48
2022/01/21 08:11:04;;;;;;;;;;;;;;;1.59;79.03;95501.31;5073215;28;982;-48
2022/01/21 08:13:30;;;;;;;;;;;;;;;1.55;77.61;95498.03;5073151;28;1036;-48
2022/01/21 08:15:59;;;;;;;;;;;;;;;1.57;76.10;95500.59;5072784;28;1910;-48
2022/01/21 08:18:25;;;;;;;;;;;;;;;1.51;75.90;95508.88;5073364;28;961;-48
2022/01/21 08:20:51;;;;;;;;;;;;;;;1.39;75.96;95512.31;5073048;28;1048;-48
2022/01/21 08:23:17;;;;;;;;;;;;;;;1.29;76.68;95518.16;5073114;28;1032;-48
2022/01/21 08:25:43;;;;;;;;;;;;;;;1.29;77.06;95528.69;5072977;28;1037;-48
2022/01/21 08:28:09;;;;;;;;;;;;;;;1.28;76.25;95540.16;5072941;28;1024;-48
2022/01/21 08:30:36;;;;;;;;;;;;;;;1.26;76.15;95539.41;5072747;28;1093;-48
2022/01/21 08:33:03;;;;;;;;;;;;;;;1.36;74.83;95545.78;5072881;28;1044;-48
2022/01/21 08:35:29;;;;;;;;;;;;;;;1.43;75.05;95555.97;5071180;28;2019;-48
2022/01/21 08:37:56;;;;;;;;;;;;;;;1.36;75.36;95556.31;5073157;28;1061;-48
2022/01/21 08:40:22;;;;;;;;;;;;;;;1.37;74.90;95559.81;5072710;28;1037;-48
2022/01/21 08:42:48;;;;;;;;;;;;;;;1.39;74.35;95565.84;5074751;28;957;-48
2022/01/21 08:45:14;;;;;;;;;;;;;;;1.25;74.48;95553.53;5076736;28;1006;-48
2022/01/21 08:47:41;;;;;;;;;;;;;;;1.14;75.12;95554.19;5076867;28;1036;-48
2022/01/21 08:50:10;;;;;;;;;;;;;;;1.22;74.06;95553.72;5076600;28;1029;-48
2022/01/21 08:52:40;;;;;;;;;;;;;;;1.27;73.12;95549.03;5076306;28;1140;-48
2022/01/21 08:55:08;;;;;;;;;;;;;;;1.15;73.06;95552.38;5076194;28;1910;-48
2022/01/21 08:57:36;;;;;;;;;;;;;;;1.11;73.48;95556.16;5076236;28;1081;-48
2022/01/21 09:00:28;;;;;;;;;;;;;;;1.25;71.94;95548.28;5076328;28;1037;-48
2022/01/21 09:02:54;;;;;;;;;;;;;;;1.27;71.36;95551.66;5073600;28;1936;-48
2022/01/21 09:05:21;;;;;;;;;;;;;;;1.31;71.63;95554.91;5076147;28;1031;-48
2022/01/21 09:07:47;;;;;;;;;;;;;;;1.43;70.61;95553.34;5076350;28;986;-48
2022/01/21 09:10:12;;;;;;;;;;;;;;;1.47;70.55;95555.66;5076259;28;981;-48
2022/01/21 09:12:38;;;;;;;;;;;;;;;1.50;69.72;95563.38;5076402;28;1009;-48
2022/01/21 09:15:05;;;;;;;;;;;;;;;1.63;69.39;95557.34;5076262;28;1905;-48
2022/01/21 09:17:34;;;;;;;;;;;;;;;1.54;70.07;95556.97;5076158;28;989;-48
2022/01/21 09:20:00;;;;;;;;;;;;;;;1.52;69.44;95556.22;5076203;28;1047;-48
2022/01/21 09:22:26;;;;;;;;;;;;;;;1.49;69.56;95551.13;5075698;28;1046;-48
2022/01/21 09:24:52;;;;;;;;;;;;;;;1.55;68.45;95552.56;5076195;28;1218;-48
2022/01/21 09:27:18;;;;;;;;;;;;;;;1.65;69.23;95556.31;5075438;28;1045;-48
2022/01/21 09:29:44;;;;;;;;;;;;;;;1.67;68.16;95549.16;5075780;28;1036;-48
2022/01/21 09:32:10;;;;;;;;;;;;;;;1.71;67.29;95561.19;5075733;28;1051;-48
2022/01/21 09:34:36;;;;;;;;;;;;;;;1.74;67.03;95562.78;5076060;28;1056;-48
2022/01/21 09:37:03;;;;;;;;;;;;;;;1.79;67.22;95563.34;5075412;28;1999;-48
2022/01/21 09:39:29;;;;;;;;;;;;;;;1.77;67.00;95569.66;5075620;28;1891;-48
2022/01/21 09:41:58;;;;;;;;;;;;;;;1.67;66.83;95562.34;5075510;28;1045;-48
2022/01/21 09:44:25;;;;;;;;;;;;;;;1.69;67.72;95552.53;5075496;28;1033;-48
2022/01/21 09:46:53;;;;;;;;;;;;;;;1.71;66.97;95552.44;5075653;28;1039;-48
2022/01/21 09:51:52;;;;;;;;;;;;;;;1.62;66.04;95555.66;5075206;28;1239;-48
2022/01/21 09:54:20;;;;;;;;;;;;;;;1.59;66.60;95545.28;5074354;28;989;-48
2022/01/21 09:56:47;;;;;;;;;;;;;;;1.66;66.47;95536.91;5075394;28;1909;-48
2022/01/21 09:59:23;;;;;;;;;;;;;;;1.85;65.93;95541.00;5073873;28;1881;-48
2022/01/21 10:01:57;;;;;;;;;;;;;;;1.91;65.84;95530.91;5075321;28;1052;-48
2022/01/21 10:04:27;;;;;;;;;;;;;;;1.86;66.15;95522.47;5075282;28;965;-48
2022/01/21 10:06:54;;;;;;;;;;;;;;;2.04;65.38;95516.94;5075058;28;961;-49
2022/01/21 10:09:21;;;;;;;;;;;;;;;2.15;64.37;95514.44;5074998;28;1048;-48
2022/01/21 10:11:49;;;;;;;;;;;;;;;2.15;64.67;95517.06;5075139;28;1005;-48
2022/01/21 10:14:19;;;;;;;;;;;;;;;2.36;63.15;95508.69;5075260;28;1072;-49
2022/01/21 10:16:46;;;;;;;;;;;;;;;2.55;63.14;95498.56;5073523;28;1987;-49
2022/01/21 10:19:12;;;;;;;;;;;;;;;2.67;62.05;95499.53;5075108;28;1064;-49
2022/01/21 10:21:39;;;;;;;;;;;;;;;2.76;61.56;95501.56;5074710;28;1039;-48
2022/01/21 10:24:05;;;;;;;;;;;;;;;2.87;61.00;95498.19;5075078;28;1052;-48
2022/01/21 10:26:31;;;;;;;;;;;;;;;2.85;58.97;95489.53;5074814;28;1044;-48
2022/01/21 10:28:58;;;;;;;;;;;;;;;2.78;59.80;95493.53;5074585;28;1057;-48
2022/01/21 10:31:24;;;;;;;;;;;;;;;2.63;59.58;95484.84;5074624;28;1879;-49
2022/01/21 10:33:56;;;;;;;;;;;;;;;2.70;59.06;95480.84;5074805;28;1052;-49
2022/01/21 10:36:28;;;;;;;;;;;;;;;2.71;58.99;95471.97;5074446;28;1905;-49
2022/01/21 10:39:10;;;;;;;;;;;;;;;2.83;58.21;95475.59;5074393;28;1077;-49
2022/01/21 10:41:40;;;;;;;;;;;;;;;2.90;58.87;95475.06;5074432;28;1978;-48
2022/01/21 10:44:06;;;;;;;;;;;;;;;2.69;57.56;95481.78;5074423;28;985;-49
2022/01/21 10:46:32;;;;;;;;;;;;;;;2.63;58.49;95476.94;5074403;28;1092;-48
2022/01/21 10:49:04;;;;;;;;;;;;;;;2.56;59.09;95468.56;5073989;28;976;-48
2022/01/21 10:51:32;;;;;;;;;;;;;;;2.58;59.81;95485.19;5074262;28;1125;-49
2022/01/21 10:54:10;;;;;;;;;;;;;;;2.63;58.86;95476.94;5074091;28;1046;-48
2022/01/21 10:56:36;;;;;;;;;;;;;;;2.57;59.67;95470.28;5074429;28;1910;-48
2022/01/21 10:59:02;;;;;;;;;;;;;;;2.66;58.18;95463.53;5073774;28;1066;-48
2022/01/21 11:01:30;;;;;;;;;;;;;;;2.78;57.12;95453.91;5073932;28;990;-48
2022/01/21 11:03:56;;;;;;;;;;;;;;;2.91;57.98;95463.50;5074223;28;1020;-48
2022/01/21 11:06:25;;;;;;;;;;;;;;;3.02;57.47;95475.16;5073645;28;969;-48
2022/01/21 11:09:10;;;;;;;;;;;;;;;2.90;56.62;95472.41;5073955;28;969;-48
2022/01/21 11:11:36;;;;;;;;;;;;;;;2.74;56.53;95479.69;5074262;28;989;-48
2022/01/21 11:14:10;;;;;;;;;;;;;;;2.57;55.78;95480.00;5072667;28;1053;-48
2022/01/21 11:16:36;;;;;;;;;;;;;;;2.73;56.28;95468.28;5073698;28;1977;-48
2022/01/21 11:19:12;;;;;;;;;;;;;;;2.69;56.61;95473.88;5073460;28;1089;-48
2022/01/21 11:21:38;;;;;;;;;;;;;;;2.63;56.60;95474.28;5073882;28;1044;-48
2022/01/21 11:24:05;;;;;;;;;;;;;;;2.65;57.68;95473.22;5073777;28;1065;-48
2022/01/21 11:26:31;;;;;;;;;;;;;;;2.66;56.92;95482.84;5073787;28;1062;-48
2022/01/21 11:28:57;;;;;;;;;;;;;;;2.73;57.59;95475.34;5073221;28;1061;-48
2022/01/21 11:31:26;;;;;;;;;;;;;;;2.88;56.37;95461.09;5073827;28;1052;-48
2022/01/21 11:33:52;;;;;;;;;;;;;;;2.91;56.74;95466.16;5073623;28;977;-49
2022/01/21 11:36:18;;;;;;;;;;;;;;;2.99;56.93;95465.63;5073358;28;1993;-49
2022/01/21 11:38:45;;;;;;;;;;;;;;;2.85;56.88;95458.66;5073444;28;1059;-48
2022/01/21 11:41:13;;;;;;;;;;;;;;;2.90;57.01;95453.91;5073635;28;1322;-49
2022/01/21 11:43:47;;;;;;;;;;;;;;;2.95;56.07;95452.75;5073254;28;1033;-49
2022/01/21 11:46:20;;;;;;;;;;;;;;;2.98;55.59;95440.19;5073506;28;1068;-49
2022/01/21 11:48:54;;;;;;;;;;;;;;;2.87;55.38;95440.06;5073116;28;1041;-49
2022/01/21 11:51:26;;;;;;;;;;;;;;;2.62;54.70;95441.78;5073324;28;1085;-49
2022/01/21 11:53:54;;;;;;;;;;;;;;;2.46;54.70;95438.50;5073105;28;1009;-49
2022/01/21 11:56:42;;;;;;;;;;;;;;;2.48;54.94;95439.22;5073415;28;1914;-49
2022/01/21 11:59:11;;;;;;;;;;;;;;;2.56;55.41;95430.78;5073014;28;973;-49
2022/01/21 12:01:47;;;;;;;;;;;;;;;2.61;56.02;95428.69;5073229;28;1892;-49
2022/01/21 12:04:35;;;;;;;;;;;;;;;2.52;55.79;95432.78;5073163;28;1022;-49
2022/01/21 12:07:01;;;;;;;;;;;;;;;2.61;53.64;95426.88;5073188;28;1067;-49
2022/01/21 12:09:46;;;;;;;;;;;;;;;2.59;54.23;95420.84;5072875;28;1125;-49
2022/01/21 12:12:14;;;;;;;;;;;;;;;2.75;54.56;95418.00;5072977;28;1181;-49
2022/01/21 12:14:41;;;;;;;;;;;;;;;2.70;55.49;95417.47;5072872;28;1010;-49
2022/01/21 12:17:19;;;;;;;;;;;;;;;2.48;55.28;95421.59;5073881;28;1914;-48
2022/01/21 12:19:45;;;;;;;;;;;;;;;2.59;56.08;95412.09;5076980;28;1124;-48
2022/01/21 12:22:18;;;;;;;;;;;;;;;2.77;54.61;95412.59;5077425;28;1052;-49
2022/01/21 12:24:48;;;;;;;;;;;;;;;2.57;53.79;95429.84;5076896;28;1084;-49
2022/01/21 12:27:15;;;;;;;;;;;;;;;2.37;56.46;95426.75;5076807;28;1029;-49
2022/01/21 12:29:41;;;;;;;;;;;;;;;2.49;55.26;95425.94;5077155;28;1068;-49
2022/01/21 12:32:20;;;;;;;;;;;;;;;2.57;55.38;95437.75;5077322;28;1004;-53
2022/01/21 12:35:16;;;;;;;;;;;;;;;2.84;54.92;95425.28;5077030;28;1044;-49
2022/01/21 12:39:06;;;;;;;;;;;;;;;2.99;54.42;95433.09;5055836;28;1894;-49
2022/01/21 12:40:55;;;;;;;;;;;;;;;2.86;56.16;95420.72;5056689;28;1528;-49
2022/01/21 12:43:36;;;;;;;;;;;;;;;2.93;55.60;95411.44;5055753;28;1065;-49
2022/01/21 12:46:03;;;;;;;;;;;;;;;2.95;55.92;95421.06;5056792;28;1041;-49
2022/01/21 12:48:33;;;;;;;;;;;;;;;2.86;56.92;95427.81;5056779;28;1021;-49
2022/01/21 12:51:07;;;;;;;;;;;;;;;2.71;57.91;95427.09;5056472;28;1104;-49
2022/01/21 12:53:45;;;;;;;;;;;;;;;2.96;57.83;95435.94;5056515;28;1291;-49
2022/01/21 12:56:11;;;;;;;;;;;;;;;2.97;57.84;95432.34;5056517;28;1910;-48
2022/01/21 12:58:41;;;;;;;;;;;;;;;2.76;57.69;95427.63;5056517;28;965;-49
2022/01/21 13:01:09;;;;;;;;;;;;;;;2.84;57.47;95438.47;5056406;28;1067;-49
2022/01/21 13:03:41;;;;;;;;;;;;;;;2.64;58.90;95439.03;5056507;28;952;-49
2022/01/21 13:06:19;;;;;;;;;;;;;;;2.52;58.47;95427.50;5056361;28;1041;-49
2022/01/21 13:09:00;;;;;;;;;;;;;;;2.48;58.42;95429.50;5056546;28;1025;-49
2022/01/21 13:11:28;;;;;;;;;;;;;;;2.58;57.90;95435.03;5054849;28;1053;-49
2022/01/21 13:17:08;;;;;;;;;;;;;;;2.65;56.79;95435.44;5056146;28;1991;-49
2022/01/21 13:19:53;;;;;;;;;;;;;;;2.73;56.74;95433.97;5056014;28;1033;-49
2022/01/21 13:22:28;;;;;;;;;;;;;;;2.81;56.51;95438.72;5056218;28;962;-49
2022/01/21 13:25:36;;;;;;;;;;;;;;;2.87;56.54;95438.28;5056009;28;965;-49
2022/01/21 13:27:47;;;;;;;;;;;;;;;2.91;56.93;95441.56;5052539;28;1788;-48
2022/01/21 13:30:14;;;;;;;;;;;;;;;2.75;57.36;95444.41;5055565;28;974;-49
2022/01/21 13:32:41;;;;;;;;;;;;;;;2.59;58.95;95441.97;5054791;28;974;-49
2022/01/21 13:35:10;;;;;;;;;;;;;;;2.47;58.84;95442.84;5056590;28;1906;-49
2022/01/21 13:37:40;;;;;;;;;;;;;;;2.32;59.27;95435.00;5076043;28;1061;-49
2022/01/21 13:40:08;;;;;;;;;;;;;;;2.20;59.66;95440.25;5075553;28;1054;-49
2022/01/21 13:42:35;;;;;;;;;;;;;;;2.27;59.61;95446.81;5075896;28;1015;-49
2022/01/21 13:45:05;;;;;;;;;;;;;;;2.27;60.02;95439.72;5075730;28;989;-49
2022/01/21 13:47:37;;;;;;;;;;;;;;;2.31;59.52;95443.00;5075717;28;1032;-49
2022/01/21 13:50:09;;;;;;;;;;;;;;;2.10;59.03;95446.13;5075494;28;1214;-49
2022/01/21 13:52:42;;;;;;;;;;;;;;;1.87;60.79;95450.31;5075455;28;1089;-49
2022/01/21 13:55:10;;;;;;;;;;;;;;;1.94;59.68;95456.03;5075081;28;2001;-49
2022/01/21 13:57:42;;;;;;;;;;;;;;;1.98;58.90;95449.59;5075464;28;1049;-49
2022/01/21 14:00:08;;;;;;;;;;;;;;;1.95;59.95;95447.16;5075338;28;1056;-49
2022/01/21 14:02:34;;;;;;;;;;;;;;;2.02;60.34;95451.09;5075208;28;1108;-49
2022/01/21 14:05:02;;;;;;;;;;;;;;;1.97;60.66;95447.91;5075070;28;1034;-49